Camp Point, Illinois
Current Conditions -  °F | °C
As of 11:54 PM on Tuesday 27 Jan 2015 (Local Time) from KUIN Reporting Station
Haze Haze  
Wind Chill: 20°   Ceiling: 800
Heat Index: 29°   Visibility: 4mi
Dew Point: 26°   Wind: 10mph
Humidity: 89%   Direction: 140°SE
Pressure: 30.22"   Gusts: NA
Location:  40.04°N, 91.07°W
Report Text: KUIN 280554Z AUTO 14009KT 4SM BR OVC008 M02/M03 A3022 RMK AO2 SLP239 T10171033 11006 21022 400561022 56000
Loading
Personal Weather Stations






























Interactive Weather Map New forecast layout! Learn more

10-Day Weather Forecast

Advertisements
Track Severe Weather on mobile